sensor_id;sensor_type;location;lat;lon;timestamp;P1;durP1;ratioP1;P2;durP2;ratioP2
73072;SDS011;61260;51.090;-1.786;2022-08-19T00:00:38;1.20;;;0.60;;
73072;SDS011;61260;51.090;-1.786;2022-08-19T00:03:06;1.90;;;0.80;;
73072;SDS011;61260;51.090;-1.786;2022-08-19T00:05:34;2.70;;;0.80;;
73072;SDS011;61260;51.090;-1.786;2022-08-19T00:08:02;2.70;;;0.90;;
73072;SDS011;61260;51.090;-1.786;2022-08-19T00:10:30;2.60;;;0.70;;
73072;SDS011;61260;51.090;-1.786;2022-08-19T00:12:58;1.20;;;0.50;;
73072;SDS011;61260;51.090;-1.786;2022-08-19T00:15:25;1.60;;;0.60;;
73072;SDS011;61260;51.090;-1.786;2022-08-19T00:17:53;2.30;;;0.50;;
73072;SDS011;61260;51.090;-1.786;2022-08-19T00:20:21;2.10;;;0.50;;
73072;SDS011;61260;51.090;-1.786;2022-08-19T00:22:49;1.00;;;0.40;;
73072;SDS011;61260;51.090;-1.786;2022-08-19T00:25:18;1.10;;;0.30;;
73072;SDS011;61260;51.090;-1.786;2022-08-19T00:27:45;0.50;;;0.30;;
73072;SDS011;61260;51.090;-1.786;2022-08-19T00:30:13;0.20;;;0.20;;
73072;SDS011;61260;51.090;-1.786;2022-08-19T00:32:41;1.30;;;0.30;;
73072;SDS011;61260;51.090;-1.786;2022-08-19T00:35:09;1.20;;;0.30;;
73072;SDS011;61260;51.090;-1.786;2022-08-19T00:37:37;1.00;;;0.20;;
73072;SDS011;61260;51.090;-1.786;2022-08-19T00:40:11;2.40;;;0.40;;
73072;SDS011;61260;51.090;-1.786;2022-08-19T00:42:39;0.40;;;0.30;;
73072;SDS011;61260;51.090;-1.786;2022-08-19T00:45:11;2.80;;;0.40;;
73072;SDS011;61260;51.090;-1.786;2022-08-19T00:47:41;0.90;;;0.50;;
73072;SDS011;61260;51.090;-1.786;2022-08-19T00:50:09;1.00;;;0.40;;
73072;SDS011;61260;51.090;-1.786;2022-08-19T00:52:39;1.40;;;0.50;;
73072;SDS011;61260;51.090;-1.786;2022-08-19T00:55:11;0.80;;;0.50;;
73072;SDS011;61260;51.090;-1.786;2022-08-19T00:57:44;0.90;;;0.40;;
73072;SDS011;61260;51.090;-1.786;2022-08-19T01:02:44;1.20;;;0.40;;
73072;SDS011;61260;51.090;-1.786;2022-08-19T01:05:13;1.70;;;0.40;;
73072;SDS011;61260;51.090;-1.786;2022-08-19T01:07:45;2.60;;;0.50;;
73072;SDS011;61260;51.090;-1.786;2022-08-19T01:10:16;2.40;;;0.60;;
73072;SDS011;61260;51.090;-1.786;2022-08-19T01:12:46;0.60;;;0.30;;
73072;SDS011;61260;51.090;-1.786;2022-08-19T01:15:22;1.90;;;0.60;;
73072;SDS011;61260;51.090;-1.786;2022-08-19T01:17:53;0.40;;;0.40;;
73072;SDS011;61260;51.090;-1.786;2022-08-19T01:20:22;1.80;;;0.50;;
73072;SDS011;61260;51.090;-1.786;2022-08-19T01:22:51;0.80;;;0.40;;
73072;SDS011;61260;51.090;-1.786;2022-08-19T01:25:21;0.60;;;0.30;;
73072;SDS011;61260;51.090;-1.786;2022-08-19T01:27:55;0.60;;;0.40;;
73072;SDS011;61260;51.090;-1.786;2022-08-19T01:30:24;1.00;;;0.30;;
73072;SDS011;61260;51.090;-1.786;2022-08-19T01:32:54;0.60;;;0.40;;
73072;SDS011;61260;51.090;-1.786;2022-08-19T01:35:23;0.60;;;0.20;;
73072;SDS011;61260;51.090;-1.786;2022-08-19T01:37:53;0.40;;;0.30;;
73072;SDS011;61260;51.090;-1.786;2022-08-19T01:40:24;0.50;;;0.20;;
73072;SDS011;61260;51.090;-1.786;2022-08-19T01:42:53;1.10;;;0.30;;
73072;SDS011;61260;51.090;-1.786;2022-08-19T01:45:22;0.70;;;0.30;;
73072;SDS011;61260;51.090;-1.786;2022-08-19T01:47:51;0.50;;;0.30;;
73072;SDS011;61260;51.090;-1.786;2022-08-19T01:50:19;1.50;;;0.30;;
73072;SDS011;61260;51.090;-1.786;2022-08-19T01:52:47;0.10;;;0.10;;
73072;SDS011;61260;51.090;-1.786;2022-08-19T01:55:16;0.10;;;0.10;;
73072;SDS011;61260;51.090;-1.786;2022-08-19T01:57:46;0.40;;;0.10;;
73072;SDS011;61260;51.090;-1.786;2022-08-19T02:00:17;0.10;;;0.00;;
73072;SDS011;61260;51.090;-1.786;2022-08-19T02:02:48;0.20;;;0.10;;
73072;SDS011;61260;51.090;-1.786;2022-08-19T02:05:16;0.40;;;0.20;;
73072;SDS011;61260;51.090;-1.786;2022-08-19T02:07:44;0.40;;;0.20;;
73072;SDS011;61260;51.090;-1.786;2022-08-19T02:10:13;0.30;;;0.10;;
73072;SDS011;61260;51.090;-1.786;2022-08-19T02:12:42;0.30;;;0.20;;
73072;SDS011;61260;51.090;-1.786;2022-08-19T02:15:11;0.10;;;0.00;;
73072;SDS011;61260;51.090;-1.786;2022-08-19T02:17:39;1.20;;;0.30;;
73072;SDS011;61260;51.090;-1.786;2022-08-19T02:20:09;1.10;;;0.10;;
73072;SDS011;61260;51.090;-1.786;2022-08-19T02:22:38;0.20;;;0.10;;
73072;SDS011;61260;51.090;-1.786;2022-08-19T02:25:07;0.30;;;0.10;;
73072;SDS011;61260;51.090;-1.786;2022-08-19T02:27:36;0.10;;;0.00;;
73072;SDS011;61260;51.090;-1.786;2022-08-19T02:30:04;0.50;;;0.10;;
73072;SDS011;61260;51.090;-1.786;2022-08-19T02:32:36;0.20;;;0.10;;
73072;SDS011;61260;51.090;-1.786;2022-08-19T02:35:04;0.00;;;0.00;;
73072;SDS011;61260;51.090;-1.786;2022-08-19T02:37:34;0.10;;;0.10;;
73072;SDS011;61260;51.090;-1.786;2022-08-19T02:40:16;0.20;;;0.10;;
73072;SDS011;61260;51.090;-1.786;2022-08-19T02:42:43;0.30;;;0.00;;
73072;SDS011;61260;51.090;-1.786;2022-08-19T02:45:12;0.00;;;0.00;;
73072;SDS011;61260;51.090;-1.786;2022-08-19T02:47:40;0.20;;;0.00;;
73072;SDS011;61260;51.090;-1.786;2022-08-19T02:50:08;0.50;;;0.10;;
73072;SDS011;61260;51.090;-1.786;2022-08-19T02:52:36;0.10;;;0.10;;
73072;SDS011;61260;51.090;-1.786;2022-08-19T02:55:05;0.10;;;0.00;;
73072;SDS011;61260;51.090;-1.786;2022-08-19T02:57:33;0.10;;;0.10;;
73072;SDS011;61260;51.090;-1.786;2022-08-19T03:00:03;0.70;;;0.10;;
73072;SDS011;61260;51.090;-1.786;2022-08-19T03:02:34;0.20;;;0.10;;
73072;SDS011;61260;51.090;-1.786;2022-08-19T03:05:02;0.30;;;0.10;;
73072;SDS011;61260;51.090;-1.786;2022-08-19T03:07:31;1.70;;;0.20;;
73072;SDS011;61260;51.090;-1.786;2022-08-19T03:09:59;0.10;;;0.10;;
73072;SDS011;61260;51.090;-1.786;2022-08-19T03:12:26;0.10;;;0.10;;
73072;SDS011;61260;51.090;-1.786;2022-08-19T03:14:54;0.00;;;0.00;;
73072;SDS011;61260;51.090;-1.786;2022-08-19T03:17:21;0.00;;;0.00;;
73072;SDS011;61260;51.090;-1.786;2022-08-19T03:19:49;0.10;;;0.10;;
73072;SDS011;61260;51.090;-1.786;2022-08-19T03:22:17;1.60;;;0.10;;
73072;SDS011;61260;51.090;-1.786;2022-08-19T03:24:44;1.00;;;0.20;;
73072;SDS011;61260;51.090;-1.786;2022-08-19T03:27:12;0.20;;;0.00;;
73072;SDS011;61260;51.090;-1.786;2022-08-19T03:29:39;0.10;;;0.10;;
73072;SDS011;61260;51.090;-1.786;2022-08-19T03:32:07;0.90;;;0.10;;
73072;SDS011;61260;51.090;-1.786;2022-08-19T03:34:36;0.10;;;0.10;;
73072;SDS011;61260;51.090;-1.786;2022-08-19T03:37:05;0.10;;;0.10;;
73072;SDS011;61260;51.090;-1.786;2022-08-19T03:39:35;2.00;;;0.20;;
73072;SDS011;61260;51.090;-1.786;2022-08-19T03:42:04;0.70;;;0.10;;
73072;SDS011;61260;51.090;-1.786;2022-08-19T03:44:32;0.60;;;0.10;;
73072;SDS011;61260;51.090;-1.786;2022-08-19T03:47:03;0.20;;;0.10;;
73072;SDS011;61260;51.090;-1.786;2022-08-19T03:49:32;0.20;;;0.20;;
73072;SDS011;61260;51.090;-1.786;2022-08-19T03:52:01;0.20;;;0.10;;
73072;SDS011;61260;51.090;-1.786;2022-08-19T03:54:31;0.40;;;0.10;;
73072;SDS011;61260;51.090;-1.786;2022-08-19T03:56:59;2.50;;;0.30;;
73072;SDS011;61260;51.090;-1.786;2022-08-19T03:59:27;0.80;;;0.10;;
73072;SDS011;61260;51.090;-1.786;2022-08-19T04:01:57;1.20;;;0.30;;
73072;SDS011;61260;51.090;-1.786;2022-08-19T04:04:25;1.00;;;0.20;;
73072;SDS011;61260;51.090;-1.786;2022-08-19T04:06:53;0.60;;;0.30;;
73072;SDS011;61260;51.090;-1.786;2022-08-19T04:09:21;1.50;;;0.20;;
73072;SDS011;61260;51.090;-1.786;2022-08-19T04:11:50;1.00;;;0.20;;
73072;SDS011;61260;51.090;-1.786;2022-08-19T04:14:21;1.80;;;0.20;;
73072;SDS011;61260;51.090;-1.786;2022-08-19T04:16:50;1.90;;;0.20;;
73072;SDS011;61260;51.090;-1.786;2022-08-19T04:19:18;1.80;;;0.20;;
73072;SDS011;61260;51.090;-1.786;2022-08-19T04:21:47;0.30;;;0.20;;
73072;SDS011;61260;51.090;-1.786;2022-08-19T04:24:17;0.70;;;0.20;;
73072;SDS011;61260;51.090;-1.786;2022-08-19T04:26:46;0.30;;;0.10;;
73072;SDS011;61260;51.090;-1.786;2022-08-19T04:29:14;1.60;;;0.10;;
73072;SDS011;61260;51.090;-1.786;2022-08-19T04:31:44;1.30;;;0.20;;
73072;SDS011;61260;51.090;-1.786;2022-08-19T04:34:13;0.60;;;0.20;;
73072;SDS011;61260;51.090;-1.786;2022-08-19T04:36:47;1.30;;;0.10;;
73072;SDS011;61260;51.090;-1.786;2022-08-19T04:39:17;0.90;;;0.20;;
73072;SDS011;61260;51.090;-1.786;2022-08-19T04:41:47;1.10;;;0.20;;
73072;SDS011;61260;51.090;-1.786;2022-08-19T04:44:33;2.20;;;0.30;;
73072;SDS011;61260;51.090;-1.786;2022-08-19T04:47:02;0.50;;;0.20;;
73072;SDS011;61260;51.090;-1.786;2022-08-19T04:49:32;0.30;;;0.20;;
73072;SDS011;61260;51.090;-1.786;2022-08-19T04:52:00;1.30;;;0.20;;
73072;SDS011;61260;51.090;-1.786;2022-08-19T04:54:27;1.20;;;0.30;;
73072;SDS011;61260;51.090;-1.786;2022-08-19T04:56:55;1.80;;;0.30;;
73072;SDS011;61260;51.090;-1.786;2022-08-19T04:59:22;0.80;;;0.30;;
73072;SDS011;61260;51.090;-1.786;2022-08-19T05:01:50;1.20;;;0.20;;
73072;SDS011;61260;51.090;-1.786;2022-08-19T05:04:18;1.70;;;0.20;;
73072;SDS011;61260;51.090;-1.786;2022-08-19T05:06:47;2.90;;;0.40;;
73072;SDS011;61260;51.090;-1.786;2022-08-19T05:09:14;1.50;;;0.30;;
73072;SDS011;61260;51.090;-1.786;2022-08-19T05:11:43;0.80;;;0.30;;
73072;SDS011;61260;51.090;-1.786;2022-08-19T05:14:11;1.00;;;0.30;;
73072;SDS011;61260;51.090;-1.786;2022-08-19T05:16:39;2.00;;;0.40;;
73072;SDS011;61260;51.090;-1.786;2022-08-19T05:19:07;1.00;;;0.30;;
73072;SDS011;61260;51.090;-1.786;2022-08-19T05:21:52;1.80;;;0.40;;
73072;SDS011;61260;51.090;-1.786;2022-08-19T05:24:39;1.60;;;0.40;;
73072;SDS011;61260;51.090;-1.786;2022-08-19T05:27:07;1.40;;;0.80;;
73072;SDS011;61260;51.090;-1.786;2022-08-19T05:29:34;1.00;;;0.50;;
73072;SDS011;61260;51.090;-1.786;2022-08-19T05:32:03;1.20;;;0.40;;
73072;SDS011;61260;51.090;-1.786;2022-08-19T05:34:36;1.70;;;0.50;;
73072;SDS011;61260;51.090;-1.786;2022-08-19T05:37:05;1.50;;;0.80;;
73072;SDS011;61260;51.090;-1.786;2022-08-19T05:39:34;1.50;;;0.40;;
73072;SDS011;61260;51.090;-1.786;2022-08-19T05:42:04;1.40;;;0.50;;
73072;SDS011;61260;51.090;-1.786;2022-08-19T05:44:35;1.20;;;0.50;;
73072;SDS011;61260;51.090;-1.786;2022-08-19T05:47:05;2.80;;;0.50;;
73072;SDS011;61260;51.090;-1.786;2022-08-19T05:49:34;2.00;;;0.50;;
73072;SDS011;61260;51.090;-1.786;2022-08-19T05:52:03;2.00;;;0.40;;
73072;SDS011;61260;51.090;-1.786;2022-08-19T05:54:32;3.30;;;0.50;;
73072;SDS011;61260;51.090;-1.786;2022-08-19T05:57:01;2.60;;;0.80;;
73072;SDS011;61260;51.090;-1.786;2022-08-19T05:59:29;2.60;;;0.60;;
73072;SDS011;61260;51.090;-1.786;2022-08-19T06:01:57;5.10;;;0.70;;
73072;SDS011;61260;51.090;-1.786;2022-08-19T06:04:26;1.90;;;0.50;;
73072;SDS011;61260;51.090;-1.786;2022-08-19T06:06:54;3.00;;;0.60;;
73072;SDS011;61260;51.090;-1.786;2022-08-19T06:09:23;3.40;;;0.80;;
73072;SDS011;61260;51.090;-1.786;2022-08-19T06:11:51;5.10;;;0.70;;
73072;SDS011;61260;51.090;-1.786;2022-08-19T06:14:20;6.40;;;0.80;;
73072;SDS011;61260;51.090;-1.786;2022-08-19T06:16:50;2.80;;;0.70;;
73072;SDS011;61260;51.090;-1.786;2022-08-19T06:19:19;4.60;;;0.70;;
73072;SDS011;61260;51.090;-1.786;2022-08-19T06:21:50;5.00;;;0.90;;
73072;SDS011;61260;51.090;-1.786;2022-08-19T06:24:19;3.70;;;0.80;;
73072;SDS011;61260;51.090;-1.786;2022-08-19T06:26:50;5.50;;;0.90;;
73072;SDS011;61260;51.090;-1.786;2022-08-19T06:29:20;5.20;;;1.00;;
73072;SDS011;61260;51.090;-1.786;2022-08-19T06:31:51;3.20;;;0.80;;
73072;SDS011;61260;51.090;-1.786;2022-08-19T06:34:21;5.10;;;0.90;;
73072;SDS011;61260;51.090;-1.786;2022-08-19T06:36:51;3.60;;;0.80;;
73072;SDS011;61260;51.090;-1.786;2022-08-19T06:39:21;2.50;;;0.80;;
73072;SDS011;61260;51.090;-1.786;2022-08-19T06:41:50;3.80;;;0.90;;
73072;SDS011;61260;51.090;-1.786;2022-08-19T06:44:21;5.90;;;0.70;;
73072;SDS011;61260;51.090;-1.786;2022-08-19T06:46:52;2.30;;;0.60;;
73072;SDS011;61260;51.090;-1.786;2022-08-19T06:49:20;3.50;;;0.90;;
73072;SDS011;61260;51.090;-1.786;2022-08-19T06:51:48;4.20;;;0.90;;
73072;SDS011;61260;51.090;-1.786;2022-08-19T06:54:17;6.50;;;0.90;;
73072;SDS011;61260;51.090;-1.786;2022-08-19T06:56:45;4.70;;;1.00;;
73072;SDS011;61260;51.090;-1.786;2022-08-19T06:59:14;6.00;;;1.10;;
73072;SDS011;61260;51.090;-1.786;2022-08-19T07:01:44;4.90;;;1.00;;
73072;SDS011;61260;51.090;-1.786;2022-08-19T07:04:14;5.70;;;0.80;;
73072;SDS011;61260;51.090;-1.786;2022-08-19T07:06:43;5.10;;;0.70;;
73072;SDS011;61260;51.090;-1.786;2022-08-19T07:09:12;4.20;;;1.00;;
73072;SDS011;61260;51.090;-1.786;2022-08-19T07:11:44;3.20;;;0.80;;
73072;SDS011;61260;51.090;-1.786;2022-08-19T07:14:13;6.20;;;1.00;;
73072;SDS011;61260;51.090;-1.786;2022-08-19T07:16:43;4.90;;;1.10;;
73072;SDS011;61260;51.090;-1.786;2022-08-19T07:19:12;5.20;;;0.80;;
73072;SDS011;61260;51.090;-1.786;2022-08-19T07:21:40;6.10;;;1.00;;
73072;SDS011;61260;51.090;-1.786;2022-08-19T07:24:08;6.80;;;1.10;;
73072;SDS011;61260;51.090;-1.786;2022-08-19T07:26:38;4.10;;;0.80;;
73072;SDS011;61260;51.090;-1.786;2022-08-19T07:29:07;4.70;;;0.80;;
73072;SDS011;61260;51.090;-1.786;2022-08-19T07:31:35;5.40;;;0.90;;
73072;SDS011;61260;51.090;-1.786;2022-08-19T07:34:03;5.90;;;1.10;;
73072;SDS011;61260;51.090;-1.786;2022-08-19T07:36:33;4.80;;;0.90;;
73072;SDS011;61260;51.090;-1.786;2022-08-19T07:39:04;2.80;;;0.90;;
73072;SDS011;61260;51.090;-1.786;2022-08-19T07:41:34;5.00;;;0.90;;
73072;SDS011;61260;51.090;-1.786;2022-08-19T07:44:03;5.60;;;0.90;;
73072;SDS011;61260;51.090;-1.786;2022-08-19T07:46:33;2.20;;;1.00;;
73072;SDS011;61260;51.090;-1.786;2022-08-19T07:49:04;6.50;;;0.80;;
73072;SDS011;61260;51.090;-1.786;2022-08-19T07:51:33;6.60;;;1.10;;
73072;SDS011;61260;51.090;-1.786;2022-08-19T07:54:00;5.10;;;1.10;;
73072;SDS011;61260;51.090;-1.786;2022-08-19T07:56:28;3.80;;;1.10;;
73072;SDS011;61260;51.090;-1.786;2022-08-19T07:58:56;6.80;;;1.20;;
73072;SDS011;61260;51.090;-1.786;2022-08-19T08:01:24;5.40;;;1.50;;
73072;SDS011;61260;51.090;-1.786;2022-08-19T08:03:53;6.10;;;1.00;;
73072;SDS011;61260;51.090;-1.786;2022-08-19T08:06:40;4.70;;;1.20;;
73072;SDS011;61260;51.090;-1.786;2022-08-19T08:09:27;4.70;;;1.00;;
73072;SDS011;61260;51.090;-1.786;2022-08-19T08:11:59;5.20;;;1.10;;
73072;SDS011;61260;51.090;-1.786;2022-08-19T08:14:28;6.40;;;1.40;;
73072;SDS011;61260;51.090;-1.786;2022-08-19T08:16:58;3.40;;;0.80;;
73072;SDS011;61260;51.090;-1.786;2022-08-19T08:19:26;5.10;;;1.00;;
73072;SDS011;61260;51.090;-1.786;2022-08-19T08:21:54;3.60;;;1.40;;
73072;SDS011;61260;51.090;-1.786;2022-08-19T08:24:24;5.70;;;1.20;;
73072;SDS011;61260;51.090;-1.786;2022-08-19T08:26:52;4.00;;;1.20;;
73072;SDS011;61260;51.090;-1.786;2022-08-19T08:29:20;5.30;;;1.20;;
73072;SDS011;61260;51.090;-1.786;2022-08-19T08:31:48;2.80;;;1.00;;
73072;SDS011;61260;51.090;-1.786;2022-08-19T08:34:15;4.60;;;1.10;;
73072;SDS011;61260;51.090;-1.786;2022-08-19T08:36:43;3.80;;;0.90;;
73072;SDS011;61260;51.090;-1.786;2022-08-19T08:39:12;5.40;;;1.20;;
73072;SDS011;61260;51.090;-1.786;2022-08-19T08:41:44;4.40;;;1.10;;
73072;SDS011;61260;51.090;-1.786;2022-08-19T08:44:20;3.50;;;1.40;;
73072;SDS011;61260;51.090;-1.786;2022-08-19T08:46:55;4.50;;;1.20;;
73072;SDS011;61260;51.090;-1.786;2022-08-19T08:49:28;4.50;;;1.30;;
73072;SDS011;61260;51.090;-1.786;2022-08-19T08:52:02;4.50;;;1.00;;
73072;SDS011;61260;51.090;-1.786;2022-08-19T08:54:33;4.40;;;1.10;;
73072;SDS011;61260;51.090;-1.786;2022-08-19T08:57:06;4.50;;;1.20;;
73072;SDS011;61260;51.090;-1.786;2022-08-19T08:59:38;2.80;;;1.00;;
73072;SDS011;61260;51.090;-1.786;2022-08-19T09:02:08;4.50;;;1.60;;
73072;SDS011;61260;51.090;-1.786;2022-08-19T09:04:36;4.40;;;1.20;;
73072;SDS011;61260;51.090;-1.786;2022-08-19T09:07:11;3.20;;;0.90;;
73072;SDS011;61260;51.090;-1.786;2022-08-19T09:09:49;4.10;;;1.00;;
73072;SDS011;61260;51.090;-1.786;2022-08-19T09:12:19;4.50;;;1.10;;
73072;SDS011;61260;51.090;-1.786;2022-08-19T09:15:03;2.80;;;0.90;;
73072;SDS011;61260;51.090;-1.786;2022-08-19T09:17:33;3.70;;;1.00;;
73072;SDS011;61260;51.090;-1.786;2022-08-19T09:20:04;4.30;;;1.40;;
73072;SDS011;61260;51.090;-1.786;2022-08-19T09:22:34;2.60;;;0.80;;
73072;SDS011;61260;51.090;-1.786;2022-08-19T09:25:03;3.40;;;1.00;;
73072;SDS011;61260;51.090;-1.786;2022-08-19T09:27:33;4.30;;;1.10;;
73072;SDS011;61260;51.090;-1.786;2022-08-19T09:30:06;3.10;;;1.00;;
73072;SDS011;61260;51.090;-1.786;2022-08-19T09:32:37;4.10;;;1.20;;
73072;SDS011;61260;51.090;-1.786;2022-08-19T09:35:08;4.30;;;0.80;;
73072;SDS011;61260;51.090;-1.786;2022-08-19T09:37:36;5.40;;;1.00;;
73072;SDS011;61260;51.090;-1.786;2022-08-19T09:40:05;4.70;;;0.90;;
73072;SDS011;61260;51.090;-1.786;2022-08-19T09:42:34;4.80;;;0.90;;
73072;SDS011;61260;51.090;-1.786;2022-08-19T09:45:01;3.40;;;0.90;;
73072;SDS011;61260;51.090;-1.786;2022-08-19T09:47:30;3.20;;;1.00;;
73072;SDS011;61260;51.090;-1.786;2022-08-19T09:50:04;2.10;;;1.00;;
73072;SDS011;61260;51.090;-1.786;2022-08-19T09:52:34;5.60;;;1.10;;
73072;SDS011;61260;51.090;-1.786;2022-08-19T09:55:02;5.10;;;1.30;;
73072;SDS011;61260;51.090;-1.786;2022-08-19T09:57:31;6.40;;;1.20;;
73072;SDS011;61260;51.090;-1.786;2022-08-19T09:59:59;4.40;;;0.80;;
73072;SDS011;61260;51.090;-1.786;2022-08-19T10:02:26;5.20;;;0.90;;
73072;SDS011;61260;51.090;-1.786;2022-08-19T10:04:55;3.10;;;0.50;;
73072;SDS011;61260;51.090;-1.786;2022-08-19T10:07:42;4.40;;;1.10;;
73072;SDS011;61260;51.090;-1.786;2022-08-19T10:10:10;5.10;;;0.80;;
73072;SDS011;61260;51.090;-1.786;2022-08-19T10:12:38;2.30;;;0.70;;
73072;SDS011;61260;51.090;-1.786;2022-08-19T10:15:06;4.30;;;1.00;;
73072;SDS011;61260;51.090;-1.786;2022-08-19T10:17:34;3.50;;;1.10;;
73072;SDS011;61260;51.090;-1.786;2022-08-19T10:20:03;3.00;;;0.90;;
73072;SDS011;61260;51.090;-1.786;2022-08-19T10:22:32;4.00;;;0.90;;
73072;SDS011;61260;51.090;-1.786;2022-08-19T10:25:03;4.60;;;0.90;;
73072;SDS011;61260;51.090;-1.786;2022-08-19T10:27:33;3.20;;;0.70;;
73072;SDS011;61260;51.090;-1.786;2022-08-19T10:30:00;3.70;;;0.80;;
73072;SDS011;61260;51.090;-1.786;2022-08-19T10:32:28;4.50;;;0.70;;
73072;SDS011;61260;51.090;-1.786;2022-08-19T10:34:57;4.20;;;1.00;;
73072;SDS011;61260;51.090;-1.786;2022-08-19T10:37:24;4.30;;;1.00;;
73072;SDS011;61260;51.090;-1.786;2022-08-19T10:39:52;3.70;;;0.90;;
73072;SDS011;61260;51.090;-1.786;2022-08-19T10:42:19;4.20;;;1.00;;
73072;SDS011;61260;51.090;-1.786;2022-08-19T10:44:47;4.10;;;0.90;;
73072;SDS011;61260;51.090;-1.786;2022-08-19T10:47:16;3.90;;;0.80;;
73072;SDS011;61260;51.090;-1.786;2022-08-19T10:49:43;5.10;;;0.80;;
73072;SDS011;61260;51.090;-1.786;2022-08-19T10:52:29;4.50;;;0.90;;
73072;SDS011;61260;51.090;-1.786;2022-08-19T10:54:59;4.80;;;0.90;;
73072;SDS011;61260;51.090;-1.786;2022-08-19T10:57:45;3.70;;;0.90;;
73072;SDS011;61260;51.090;-1.786;2022-08-19T11:00:13;3.70;;;0.90;;
73072;SDS011;61260;51.090;-1.786;2022-08-19T11:02:41;4.50;;;1.00;;
73072;SDS011;61260;51.090;-1.786;2022-08-19T11:05:09;3.60;;;1.00;;
73072;SDS011;61260;51.090;-1.786;2022-08-19T11:07:37;5.10;;;1.00;;
73072;SDS011;61260;51.090;-1.786;2022-08-19T11:10:06;3.70;;;0.90;;
73072;SDS011;61260;51.090;-1.786;2022-08-19T11:12:36;4.70;;;1.20;;
73072;SDS011;61260;51.090;-1.786;2022-08-19T11:15:05;3.20;;;0.70;;
73072;SDS011;61260;51.090;-1.786;2022-08-19T11:17:36;3.50;;;0.90;;
73072;SDS011;61260;51.090;-1.786;2022-08-19T11:20:07;3.90;;;1.00;;
73072;SDS011;61260;51.090;-1.786;2022-08-19T11:22:36;3.80;;;0.70;;
73072;SDS011;61260;51.090;-1.786;2022-08-19T11:25:04;3.00;;;0.70;;
73072;SDS011;61260;51.090;-1.786;2022-08-19T11:27:33;4.60;;;1.20;;
73072;SDS011;61260;51.090;-1.786;2022-08-19T11:30:06;2.20;;;0.80;;
73072;SDS011;61260;51.090;-1.786;2022-08-19T11:32:36;3.80;;;0.80;;
73072;SDS011;61260;51.090;-1.786;2022-08-19T11:35:05;3.30;;;1.00;;
73072;SDS011;61260;51.090;-1.786;2022-08-19T11:37:33;3.10;;;0.90;;
73072;SDS011;61260;51.090;-1.786;2022-08-19T11:40:04;3.80;;;1.00;;
73072;SDS011;61260;51.090;-1.786;2022-08-19T11:42:32;3.10;;;0.80;;
73072;SDS011;61260;51.090;-1.786;2022-08-19T11:45:19;3.50;;;1.00;;
73072;SDS011;61260;51.090;-1.786;2022-08-19T11:47:46;4.00;;;0.90;;
73072;SDS011;61260;51.090;-1.786;2022-08-19T11:50:14;4.40;;;0.90;;
73072;SDS011;61260;51.090;-1.786;2022-08-19T11:52:42;2.60;;;0.80;;
73072;SDS011;61260;51.090;-1.786;2022-08-19T11:55:11;4.60;;;1.10;;
73072;SDS011;61260;51.090;-1.786;2022-08-19T11:57:39;2.40;;;0.80;;
73072;SDS011;61260;51.090;-1.786;2022-08-19T12:00:09;5.00;;;1.00;;
73072;SDS011;61260;51.090;-1.786;2022-08-19T12:02:38;3.40;;;0.90;;
73072;SDS011;61260;51.090;-1.786;2022-08-19T12:05:07;3.30;;;0.80;;
73072;SDS011;61260;51.090;-1.786;2022-08-19T12:07:35;3.20;;;0.60;;
73072;SDS011;61260;51.090;-1.786;2022-08-19T12:10:03;3.10;;;0.70;;
73072;SDS011;61260;51.090;-1.786;2022-08-19T12:12:31;4.40;;;0.90;;
73072;SDS011;61260;51.090;-1.786;2022-08-19T12:14:59;4.00;;;0.90;;
73072;SDS011;61260;51.090;-1.786;2022-08-19T12:17:26;3.90;;;1.00;;
73072;SDS011;61260;51.090;-1.786;2022-08-19T12:19:54;4.70;;;1.00;;
73072;SDS011;61260;51.090;-1.786;2022-08-19T12:22:22;4.30;;;1.00;;
73072;SDS011;61260;51.090;-1.786;2022-08-19T12:24:49;3.50;;;0.70;;
73072;SDS011;61260;51.090;-1.786;2022-08-19T12:27:19;5.40;;;1.10;;
73072;SDS011;61260;51.090;-1.786;2022-08-19T12:29:46;4.50;;;0.90;;
73072;SDS011;61260;51.090;-1.786;2022-08-19T12:32:15;3.20;;;0.80;;
73072;SDS011;61260;51.090;-1.786;2022-08-19T12:34:42;4.30;;;0.80;;
73072;SDS011;61260;51.090;-1.786;2022-08-19T12:37:10;4.20;;;0.80;;
73072;SDS011;61260;51.090;-1.786;2022-08-19T12:39:39;3.60;;;0.80;;
73072;SDS011;61260;51.090;-1.786;2022-08-19T12:42:08;2.30;;;0.70;;
73072;SDS011;61260;51.090;-1.786;2022-08-19T12:44:36;2.90;;;0.50;;
73072;SDS011;61260;51.090;-1.786;2022-08-19T12:47:05;4.60;;;1.00;;
73072;SDS011;61260;51.090;-1.786;2022-08-19T12:49:34;4.70;;;0.70;;
73072;SDS011;61260;51.090;-1.786;2022-08-19T12:52:03;3.80;;;1.10;;
73072;SDS011;61260;51.090;-1.786;2022-08-19T12:54:33;6.40;;;1.00;;
73072;SDS011;61260;51.090;-1.786;2022-08-19T12:57:04;4.50;;;1.00;;
73072;SDS011;61260;51.090;-1.786;2022-08-19T12:59:33;5.00;;;1.10;;
73072;SDS011;61260;51.090;-1.786;2022-08-19T13:02:02;4.70;;;0.90;;
73072;SDS011;61260;51.090;-1.786;2022-08-19T13:04:30;3.20;;;0.80;;
73072;SDS011;61260;51.090;-1.786;2022-08-19T13:06:57;4.80;;;0.80;;
73072;SDS011;61260;51.090;-1.786;2022-08-19T13:09:25;3.40;;;0.70;;
73072;SDS011;61260;51.090;-1.786;2022-08-19T13:11:53;3.30;;;1.00;;
73072;SDS011;61260;51.090;-1.786;2022-08-19T13:14:20;5.60;;;1.10;;
73072;SDS011;61260;51.090;-1.786;2022-08-19T13:16:48;1.90;;;0.60;;
73072;SDS011;61260;51.090;-1.786;2022-08-19T13:19:15;2.80;;;0.70;;
73072;SDS011;61260;51.090;-1.786;2022-08-19T13:21:48;4.90;;;1.00;;
73072;SDS011;61260;51.090;-1.786;2022-08-19T13:24:17;5.00;;;1.00;;
73072;SDS011;61260;51.090;-1.786;2022-08-19T13:26:44;4.90;;;1.20;;
73072;SDS011;61260;51.090;-1.786;2022-08-19T13:29:12;4.80;;;0.90;;
73072;SDS011;61260;51.090;-1.786;2022-08-19T13:31:57;4.60;;;1.20;;
73072;SDS011;61260;51.090;-1.786;2022-08-19T13:34:44;4.30;;;1.00;;
73072;SDS011;61260;51.090;-1.786;2022-08-19T13:37:12;4.00;;;1.20;;
73072;SDS011;61260;51.090;-1.786;2022-08-19T13:39:40;4.60;;;0.90;;
73072;SDS011;61260;51.090;-1.786;2022-08-19T13:42:07;3.80;;;0.80;;
73072;SDS011;61260;51.090;-1.786;2022-08-19T13:44:36;4.60;;;0.90;;
73072;SDS011;61260;51.090;-1.786;2022-08-19T13:47:05;3.50;;;1.00;;
73072;SDS011;61260;51.090;-1.786;2022-08-19T13:49:33;4.80;;;0.90;;
73072;SDS011;61260;51.090;-1.786;2022-08-19T13:52:02;6.70;;;0.90;;
73072;SDS011;61260;51.090;-1.786;2022-08-19T13:54:31;3.10;;;1.10;;
73072;SDS011;61260;51.090;-1.786;2022-08-19T13:56:58;4.30;;;0.80;;
73072;SDS011;61260;51.090;-1.786;2022-08-19T13:59:26;3.80;;;1.10;;
73072;SDS011;61260;51.090;-1.786;2022-08-19T14:01:56;5.60;;;1.00;;
73072;SDS011;61260;51.090;-1.786;2022-08-19T14:04:24;5.10;;;0.90;;
73072;SDS011;61260;51.090;-1.786;2022-08-19T14:06:52;4.80;;;0.70;;
73072;SDS011;61260;51.090;-1.786;2022-08-19T14:09:20;5.40;;;0.90;;
73072;SDS011;61260;51.090;-1.786;2022-08-19T14:11:48;3.60;;;0.90;;
73072;SDS011;61260;51.090;-1.786;2022-08-19T14:14:16;5.30;;;0.90;;
73072;SDS011;61260;51.090;-1.786;2022-08-19T14:16:44;4.10;;;1.00;;
73072;SDS011;61260;51.090;-1.786;2022-08-19T14:19:11;3.60;;;0.80;;
73072;SDS011;61260;51.090;-1.786;2022-08-19T14:21:39;5.00;;;1.00;;
73072;SDS011;61260;51.090;-1.786;2022-08-19T14:24:07;5.40;;;1.00;;
73072;SDS011;61260;51.090;-1.786;2022-08-19T14:26:35;6.20;;;1.10;;
73072;SDS011;61260;51.090;-1.786;2022-08-19T14:29:02;4.70;;;1.00;;
73072;SDS011;61260;51.090;-1.786;2022-08-19T14:31:30;6.40;;;1.00;;
73072;SDS011;61260;51.090;-1.786;2022-08-19T14:33:57;7.20;;;1.10;;
73072;SDS011;61260;51.090;-1.786;2022-08-19T14:36:25;5.30;;;1.30;;
73072;SDS011;61260;51.090;-1.786;2022-08-19T14:38:53;5.70;;;1.30;;
73072;SDS011;61260;51.090;-1.786;2022-08-19T14:41:21;5.90;;;1.20;;
73072;SDS011;61260;51.090;-1.786;2022-08-19T14:43:50;3.40;;;0.80;;
73072;SDS011;61260;51.090;-1.786;2022-08-19T14:46:20;4.70;;;1.00;;
73072;SDS011;61260;51.090;-1.786;2022-08-19T14:48:49;4.20;;;1.10;;